Time;durP1;ratioP1;P1;durP2;ratioP2;P2;SDS_P1;SDS_P2;PMS_P1;PMS_P2;Temp;Humidity;BMP_temperature;BMP_pressure;BME280_temperature;BME280_humidity;BME280_pressure;Samples;Min_cycle;Max_cycle;Signal;HPM_P1;HPM_P2
2023/09/27 00:01:08;;;;;;;8.32;6.13;;;;;;;16.63;71.35;101894.13;5092035;28;20055;-70
2023/09/27 00:03:37;;;;;;;7.65;6.00;;;;;;;16.64;70.88;101901.41;5089878;28;20028;-71
2023/09/27 00:06:02;;;;;;;7.80;6.13;;;;;;;16.63;70.70;101898.88;5092437;28;20479;-71
2023/09/27 00:08:27;;;;;;;8.30;5.70;;;;;;;16.60;71.06;101907.81;5091284;28;20038;-71
2023/09/27 00:10:53;;;;;;;9.77;5.70;;;;;;;16.56;70.98;101909.47;5093168;28;20107;-71
2023/09/27 00:13:18;;;;;;;6.68;5.82;;;;;;;16.53;70.88;101910.84;5091330;28;20024;-71
2023/09/27 00:15:43;;;;;;;6.07;5.28;;;;;;;16.52;71.02;101905.50;5091039;28;20415;-71
2023/09/27 00:18:09;;;;;;;7.35;6.40;;;;;;;16.50;71.10;101904.91;5091359;28;20028;-71
2023/09/27 00:20:34;;;;;;;7.57;6.40;;;;;;;16.53;71.28;101910.00;5094024;28;20475;-71
2023/09/27 00:23:05;;;;;;;7.85;5.60;;;;;;;16.49;71.40;101911.66;5090829;28;20067;-70
2023/09/27 00:25:30;;;;;;;7.55;5.85;;;;;;;16.47;71.25;101908.28;5090853;28;20040;-71
2023/09/27 00:27:56;;;;;;;7.45;5.57;;;;;;;16.47;71.23;101911.91;5091724;28;20020;-71
2023/09/27 00:30:21;;;;;;;6.15;5.50;;;;;;;16.48;71.34;101909.97;5090932;28;20072;-70
2023/09/27 00:32:47;;;;;;;9.25;5.72;;;;;;;16.46;71.76;101907.41;5091326;28;20502;-71
2023/09/27 00:35:19;;;;;;;7.80;5.80;;;;;;;16.42;71.83;101909.91;5091769;28;20031;-71
2023/09/27 00:37:49;;;;;;;7.78;6.28;;;;;;;16.44;71.90;101906.84;5093181;28;20048;-71
2023/09/27 00:40:15;;;;;;;7.32;5.60;;;;;;;16.43;71.82;101906.00;5092771;28;20146;-71
2023/09/27 00:42:42;;;;;;;9.02;6.05;;;;;;;16.42;71.75;101904.28;5091190;28;20103;-71
2023/09/27 00:45:08;;;;;;;9.85;6.13;;;;;;;16.45;71.97;101900.13;5090622;28;20111;-70
2023/09/27 00:47:38;;;;;;;9.00;6.53;;;;;;;16.39;71.93;101904.00;5091371;28;20497;-71
2023/09/27 00:50:07;;;;;;;7.03;5.70;;;;;;;16.41;71.93;101902.59;5091679;28;20062;-71
2023/09/27 00:52:33;;;;;;;8.93;6.68;;;;;;;16.37;71.96;101895.84;5090510;28;20471;-71
2023/09/27 00:54:58;;;;;;;8.57;6.32;;;;;;;16.39;71.72;101893.63;5100458;28;20121;-71
2023/09/27 00:57:24;;;;;;;7.15;6.05;;;;;;;16.34;71.90;101896.38;5111696;28;20101;-71
2023/09/27 00:59:50;;;;;;;7.85;6.07;;;;;;;16.36;71.91;101899.78;5110778;28;20608;-71
2023/09/27 01:02:16;;;;;;;7.32;6.30;;;;;;;16.34;71.40;101901.97;5111808;28;20039;-70
2023/09/27 01:04:43;;;;;;;6.38;5.78;;;;;;;16.32;71.57;101886.56;5104130;28;20023;-71
2023/09/27 01:07:08;;;;;;;7.05;6.07;;;;;;;16.30;71.71;101889.63;5111523;28;20136;-70
2023/09/27 01:09:34;;;;;;;9.50;5.97;;;;;;;16.31;71.41;101891.31;5111522;28;20483;-70
2023/09/27 01:11:59;;;;;;;10.73;5.97;;;;;;;16.28;71.34;101896.63;5095239;28;20028;-71
2023/09/27 01:14:24;;;;;;;8.68;6.20;;;;;;;16.23;71.45;101894.63;5091035;28;20107;-71
2023/09/27 01:16:50;;;;;;;8.70;6.65;;;;;;;16.23;71.53;101896.53;5091447;28;20028;-71
2023/09/27 01:19:15;;;;;;;9.02;6.35;;;;;;;16.24;71.51;101889.84;5090500;28;20498;-71
2023/09/27 01:21:40;;;;;;;9.02;6.93;;;;;;;16.20;71.72;101883.94;5090713;28;20040;-70
2023/09/27 01:24:09;;;;;;;7.57;6.43;;;;;;;16.20;71.38;101879.16;5090791;28;20067;-70
2023/09/27 01:26:36;;;;;;;7.82;6.18;;;;;;;16.17;71.09;101868.50;5092329;28;20035;-71
2023/09/27 01:29:02;;;;;;;7.63;6.60;;;;;;;16.18;71.33;101863.72;5107240;28;20379;-71
2023/09/27 01:31:27;;;;;;;9.82;6.40;;;;;;;16.19;71.16;101855.09;5100612;28;20026;-71
2023/09/27 01:33:52;;;;;;;10.35;6.30;;;;;;;16.15;71.33;101855.84;5114863;28;20031;-71
2023/09/27 01:36:18;;;;;;;7.90;6.40;;;;;;;16.15;71.15;101853.94;5115296;28;20027;-72
2023/09/27 01:38:43;;;;;;;11.65;6.30;;;;;;;16.08;71.23;101856.09;5115217;28;20019;-71
2023/09/27 01:41:09;;;;;;;8.80;6.00;;;;;;;16.09;71.57;101848.53;5094471;28;20115;-71
2023/09/27 01:43:34;;;;;;;9.20;6.53;;;;;;;16.06;71.42;101854.66;5094261;28;20034;-71
2023/09/27 01:45:59;;;;;;;9.15;6.45;;;;;;;16.03;71.26;101861.63;5095262;28;20035;-70
2023/09/27 01:48:28;;;;;;;8.38;6.10;;;;;;;15.99;71.27;101860.47;5093750;28;20440;-71
2023/09/27 01:50:56;;;;;;;7.82;6.15;;;;;;;15.96;71.15;101863.81;5094153;28;20103;-71
2023/09/27 01:53:21;;;;;;;6.38;5.30;;;;;;;15.95;71.31;101868.59;5104089;28;20024;-71
2023/09/27 01:55:47;;;;;;;7.95;6.00;;;;;;;15.93;71.31;101867.16;5114054;28;20023;-70
2023/09/27 01:58:12;;;;;;;7.50;5.72;;;;;;;15.95;71.34;101868.59;5104421;28;20028;-71
2023/09/27 02:00:38;;;;;;;6.82;6.03;;;;;;;15.95;71.01;101862.09;5109410;28;20376;-71
2023/09/27 02:03:03;;;;;;;6.68;5.53;;;;;;;15.94;71.29;101866.03;5094334;28;20111;-71
2023/09/27 02:05:30;;;;;;;6.75;5.70;;;;;;;15.89;71.19;101866.81;5094173;28;20112;-70
2023/09/27 02:07:55;;;;;;;10.85;6.28;;;;;;;15.87;71.21;101866.22;5093853;28;20055;-71
2023/09/27 02:10:21;;;;;;;7.03;5.68;;;;;;;15.81;71.36;101864.50;5091893;28;20511;-71
2023/09/27 02:12:47;;;;;;;6.35;5.75;;;;;;;15.84;71.13;101855.59;5099143;28;20535;-70
2023/09/27 02:15:14;;;;;;;7.70;5.70;;;;;;;15.80;71.12;101857.22;5113775;28;20085;-71
2023/09/27 02:17:41;;;;;;;7.85;5.45;;;;;;;15.78;71.30;101856.63;5093848;28;20028;-71
2023/09/27 02:20:10;;;;;;;8.38;5.90;;;;;;;15.78;71.34;101859.41;5106082;28;20483;-71
2023/09/27 02:22:42;;;;;;;8.93;5.85;;;;;;;15.81;70.99;101856.09;5099851;28;20096;-65
2023/09/27 02:25:11;;;;;;;8.27;5.90;;;;;;;15.75;71.22;101862.75;5093661;28;20032;-71
2023/09/27 02:27:37;;;;;;;7.93;6.05;;;;;;;15.75;71.05;101859.94;5093656;28;20387;-70
2023/09/27 02:30:06;;;;;;;7.53;5.97;;;;;;;15.74;70.91;101866.66;5094583;28;20032;-71
2023/09/27 02:32:31;;;;;;;7.20;5.70;;;;;;;15.72;70.83;101863.28;5093179;28;20032;-71
2023/09/27 02:34:57;;;;;;;8.30;6.13;;;;;;;15.74;70.88;101858.25;5108634;28;20749;-71
2023/09/27 02:37:25;;;;;;;7.82;5.57;;;;;;;15.67;70.86;101863.22;5099424;28;20036;-70
2023/09/27 02:39:51;;;;;;;7.10;5.68;;;;;;;15.65;70.87;101862.66;5105342;28;20586;-71
2023/09/27 02:42:16;;;;;;;9.48;5.90;;;;;;;15.67;70.60;101871.59;5096810;28;20063;-71
2023/09/27 02:44:41;;;;;;;6.60;5.93;;;;;;;15.66;70.68;101864.34;5094556;28;20074;-72
2023/09/27 02:47:07;;;;;;;6.07;5.47;;;;;;;15.66;70.72;101862.38;5103416;28;20131;-71
2023/09/27 02:49:36;;;;;;;6.25;5.65;;;;;;;15.59;70.80;101866.44;5107104;28;20031;-70
2023/09/27 02:52:02;;;;;;;7.05;5.60;;;;;;;15.57;70.74;101868.69;5095197;28;20028;-70
2023/09/27 02:54:27;;;;;;;6.93;6.15;;;;;;;15.57;70.67;101871.47;5094539;28;20062;-71
2023/09/27 02:56:53;;;;;;;8.40;6.43;;;;;;;15.52;70.68;101871.41;5110181;28;20035;-71
2023/09/27 02:59:18;;;;;;;11.02;5.82;;;;;;;15.50;70.96;101862.44;5105701;28;20491;-71
2023/09/27 03:01:43;;;;;;;9.40;5.97;;;;;;;15.50;70.94;101868.88;5094599;28;20035;-70
2023/09/27 03:04:12;;;;;;;7.50;6.32;;;;;;;15.50;71.17;101859.63;5091971;28;20082;-71
2023/09/27 03:06:39;;;;;;;8.82;6.00;;;;;;;15.47;71.39;101864.63;5107192;28;20035;-71
2023/09/27 03:09:05;;;;;;;7.65;6.45;;;;;;;15.45;70.98;101864.06;5103867;28;20550;-70
2023/09/27 03:11:30;;;;;;;7.72;6.05;;;;;;;15.48;71.11;101859.88;5100356;28;20028;-71
2023/09/27 03:13:56;;;;;;;7.40;6.07;;;;;;;15.44;71.14;101854.00;5097379;28;20023;-70
2023/09/27 03:16:21;;;;;;;8.65;6.38;;;;;;;15.42;71.10;101867.38;5104308;28;20034;-71
2023/09/27 03:18:47;;;;;;;7.47;5.88;;;;;;;15.41;71.13;101864.84;5091543;28;20050;-71
2023/09/27 03:21:12;;;;;;;7.53;6.70;;;;;;;15.40;71.03;101860.34;5091627;28;20028;-71
2023/09/27 03:23:37;;;;;;;6.70;6.00;;;;;;;15.40;71.23;101865.94;5093856;28;20063;-71
2023/09/27 03:26:04;;;;;;;10.05;6.53;;;;;;;15.41;71.33;101868.50;5097949;28;20577;-71
2023/09/27 03:28:29;;;;;;;7.93;6.10;;;;;;;15.39;71.40;101869.84;5092336;28;20044;-70
2023/09/27 03:30:55;;;;;;;9.30;6.78;;;;;;;15.36;71.33;101868.41;5096118;28;20024;-70
2023/09/27 03:33:23;;;;;;;6.60;5.90;;;;;;;15.35;71.37;101886.31;5091957;28;20024;-71
2023/09/27 03:35:48;;;;;;;7.18;5.97;;;;;;;15.37;71.26;101883.28;5092489;28;20055;-71
2023/09/27 03:38:13;;;;;;;7.35;6.53;;;;;;;15.35;71.24;101883.50;5100521;28;20471;-71
2023/09/27 03:40:40;;;;;;;6.80;6.10;;;;;;;15.37;71.20;101886.91;5108807;28;20047;-71
2023/09/27 03:43:05;;;;;;;8.90;6.30;;;;;;;15.32;70.99;101892.41;5092350;28;20024;-71
2023/09/27 03:45:34;;;;;;;7.30;6.60;;;;;;;15.26;71.05;101896.25;5092621;28;20153;-71
2023/09/27 03:47:59;;;;;;;7.22;6.30;;;;;;;15.24;71.14;101881.69;5091613;28;20373;-70
2023/09/27 03:50:24;;;;;;;8.13;6.53;;;;;;;15.23;71.11;101868.81;5092001;28;20023;-71
2023/09/27 03:52:55;;;;;;;8.20;5.82;;;;;;;15.28;71.36;101865.22;5092104;28;20040;-70
2023/09/27 03:55:21;;;;;;;7.32;6.60;;;;;;;15.21;71.46;101852.31;5099316;28;20035;-70
2023/09/27 03:57:46;;;;;;;8.50;6.60;;;;;;;15.25;71.15;101862.94;5112622;28;20028;-70
2023/09/27 04:00:16;;;;;;;8.98;6.50;;;;;;;15.20;71.41;101863.72;5112448;28;20027;-70
2023/09/27 04:02:42;;;;;;;8.20;6.43;;;;;;;15.19;71.34;101864.84;5092785;28;20028;-70
2023/09/27 04:05:09;;;;;;;8.43;7.10;;;;;;;15.19;71.39;101878.81;5091844;28;20391;-70
2023/09/27 04:07:40;;;;;;;7.50;6.57;;;;;;;15.17;71.48;101883.84;5091402;28;20081;-71
2023/09/27 04:10:07;;;;;;;8.80;7.37;;;;;;;15.14;71.90;101893.59;5090712;28;20102;-71
2023/09/27 04:12:33;;;;;;;8.57;6.60;;;;;;;15.13;71.72;101902.22;5091345;28;20031;-70
2023/09/27 04:14:59;;;;;;;9.05;6.70;;;;;;;15.11;71.57;101910.03;5091102;28;20039;-71
2023/09/27 04:17:24;;;;;;;10.18;7.15;;;;;;;15.12;71.84;101897.75;5091928;28;20035;-71
2023/09/27 04:19:51;;;;;;;8.05;6.45;;;;;;;15.10;71.92;101888.78;5092411;28;20036;-71
2023/09/27 04:22:16;;;;;;;8.25;6.70;;;;;;;15.13;71.85;101885.44;5090590;28;20024;-71
2023/09/27 04:24:42;;;;;;;7.95;6.75;;;;;;;15.12;71.77;101903.31;5091714;28;20396;-70
2023/09/27 04:27:10;;;;;;;9.35;6.70;;;;;;;15.08;71.59;101904.94;5091747;28;20111;-71
2023/09/27 04:29:35;;;;;;;8.95;6.15;;;;;;;15.07;71.40;101914.44;5094604;28;20042;-71
2023/09/27 04:32:00;;;;;;;8.25;7.15;;;;;;;15.08;71.27;101921.72;5095343;28;20023;-71
2023/09/27 04:34:26;;;;;;;8.98;6.68;;;;;;;15.00;71.58;101909.03;5107358;28;20395;-70
2023/09/27 04:36:55;;;;;;;9.20;6.65;;;;;;;15.04;71.71;101920.56;5090265;28;20032;-71
2023/09/27 04:39:20;;;;;;;8.23;6.32;;;;;;;15.01;71.45;101930.28;5091350;28;20028;-70
2023/09/27 04:41:48;;;;;;;9.55;6.95;;;;;;;15.01;71.52;101932.25;5091369;28;20073;-71
2023/09/27 04:44:14;;;;;;;7.80;6.50;;;;;;;14.97;71.57;101927.19;5094349;28;20059;-71
2023/09/27 04:46:39;;;;;;;9.10;6.82;;;;;;;14.98;71.45;101911.25;5097675;28;20118;-70
2023/09/27 04:49:05;;;;;;;8.95;6.60;;;;;;;14.94;71.45;101882.97;5091126;28;20059;-70
2023/09/27 04:51:30;;;;;;;7.95;6.72;;;;;;;14.96;72.23;101879.91;5090861;28;20106;-70
2023/09/27 04:54:00;;;;;;;10.25;7.22;;;;;;;14.92;72.19;101889.91;5092284;28;20101;-71
2023/09/27 04:56:26;;;;;;;8.07;6.50;;;;;;;14.95;71.89;101907.00;5091574;28;20466;-72
2023/09/27 04:58:52;;;;;;;8.65;7.43;;;;;;;14.94;72.01;101908.13;5090309;28;20504;-72
2023/09/27 05:01:20;;;;;;;8.55;6.97;;;;;;;14.89;72.11;101907.19;5089416;28;20070;-71
2023/09/27 05:03:45;;;;;;;7.97;6.65;;;;;;;14.91;72.23;101899.41;5092172;28;20118;-72
2023/09/27 05:06:10;;;;;;;8.00;7.20;;;;;;;14.91;72.37;101902.19;5096077;28;20530;-71
2023/09/27 05:08:42;;;;;;;8.90;7.05;;;;;;;14.91;72.13;101905.84;5116104;28;20028;-72
2023/09/27 05:11:07;;;;;;;7.93;6.83;;;;;;;14.91;71.84;101910.59;5114350;28;20019;-71
2023/09/27 05:13:33;;;;;;;9.18;6.30;;;;;;;14.91;72.24;101902.19;5115789;28;20028;-68
2023/09/27 05:15:58;;;;;;;8.75;6.95;;;;;;;14.88;72.15;101889.56;5108167;28;20495;-69
2023/09/27 05:18:32;;;;;;;7.15;6.38;;;;;;;14.88;72.63;101875.59;5094557;28;20028;-72
2023/09/27 05:21:02;;;;;;;8.82;6.97;;;;;;;14.83;72.53;101883.91;5095357;28;20077;-70
2023/09/27 05:23:28;;;;;;;8.45;7.43;;;;;;;14.81;72.42;101886.09;5098845;28;20039;-70
2023/09/27 05:25:56;;;;;;;8.10;7.13;;;;;;;14.84;72.74;101881.97;5107374;28;20032;-69
2023/09/27 05:28:21;;;;;;;7.63;6.80;;;;;;;14.86;72.72;101877.81;5092928;28;20059;-70
2023/09/27 05:30:46;;;;;;;8.55;7.30;;;;;;;14.84;72.44;101877.22;5092462;28;20036;-71
2023/09/27 05:33:12;;;;;;;9.90;7.10;;;;;;;14.82;72.37;101884.19;5092028;28;20059;-71
2023/09/27 05:35:37;;;;;;;8.27;6.88;;;;;;;14.80;72.42;101887.22;5092579;28;20440;-70
2023/09/27 05:38:03;;;;;;;9.40;7.60;;;;;;;14.79;72.38;101885.53;5110941;28;20035;-70
2023/09/27 05:40:28;;;;;;;8.55;7.00;;;;;;;14.80;72.39;101890.00;5092099;28;20118;-69
2023/09/27 05:42:53;;;;;;;11.27;7.05;;;;;;;14.82;72.37;101885.03;5111706;28;20023;-69
2023/09/27 05:45:19;;;;;;;8.48;7.55;;;;;;;14.83;72.58;101881.13;5098204;28;20085;-70
2023/09/27 05:47:44;;;;;;;12.07;7.75;;;;;;;14.81;72.68;101876.88;5102642;28;20067;-71
2023/09/27 05:50:13;;;;;;;8.52;7.18;;;;;;;14.82;72.70;101870.22;5104592;28;20486;-72
2023/09/27 05:52:43;;;;;;;8.70;7.20;;;;;;;14.80;73.04;101870.44;5103602;28;20547;-71
2023/09/27 05:55:09;;;;;;;13.60;7.22;;;;;;;14.82;72.63;101873.00;5099724;28;20088;-71
2023/09/27 05:57:34;;;;;;;8.25;6.90;;;;;;;14.72;72.80;101865.28;5092102;28;20028;-72
2023/09/27 06:00:00;;;;;;;8.32;7.03;;;;;;;14.77;72.88;101872.91;5094244;28;20032;-71
2023/09/27 06:02:30;;;;;;;9.15;7.00;;;;;;;14.76;72.90;101872.06;5093255;28;20115;-71
2023/09/27 06:04:56;;;;;;;8.50;7.13;;;;;;;14.76;72.90;101866.47;5094461;28;20164;-71
2023/09/27 06:07:22;;;;;;;7.68;6.85;;;;;;;14.77;72.66;101881.28;5112242;28;20743;-73
2023/09/27 06:09:48;;;;;;;10.02;7.15;;;;;;;14.73;72.74;101873.41;5094730;28;20032;-72
2023/09/27 06:12:14;;;;;;;8.60;7.22;;;;;;;14.72;73.09;101868.09;5093457;28;20020;-68
2023/09/27 06:14:41;;;;;;;10.38;7.20;;;;;;;14.72;73.77;101870.88;5091190;28;20557;-69
2023/09/27 06:17:07;;;;;;;9.43;7.22;;;;;;;14.72;73.44;101866.13;5103297;28;20038;-71
2023/09/27 06:19:33;;;;;;;10.77;7.68;;;;;;;14.71;73.45;101869.19;5094260;28;20024;-69
2023/09/27 06:22:04;;;;;;;8.95;7.10;;;;;;;14.70;73.84;101865.56;5090185;28;20391;-70
2023/09/27 06:24:30;;;;;;;10.15;6.90;;;;;;;14.79;73.88;101857.59;5091386;28;20132;-69
2023/09/27 06:26:55;;;;;;;8.45;7.32;;;;;;;14.79;74.49;101860.38;5111342;28;20023;-70
2023/09/27 06:29:21;;;;;;;10.02;7.57;;;;;;;14.81;74.34;101846.97;5109894;28;20023;-70
2023/09/27 06:31:47;;;;;;;10.65;7.10;;;;;;;14.86;74.78;101857.41;5091360;28;20077;-70
2023/09/27 06:34:17;;;;;;;10.52;7.03;;;;;;;14.91;74.78;101857.47;5097767;28;20097;-70
2023/09/27 06:36:42;;;;;;;10.50;7.80;;;;;;;14.91;75.51;101854.66;5097908;28;20028;-71
2023/09/27 06:39:14;;;;;;;8.65;7.70;;;;;;;14.90;75.96;101853.00;5095676;28;20038;-70
2023/09/27 06:41:41;;;;;;;12.65;7.78;;;;;;;14.97;75.65;101857.28;5095214;28;20020;-70
2023/09/27 06:44:07;;;;;;;11.60;8.00;;;;;;;15.03;75.81;101862.94;5097209;28;20526;-70
2023/09/27 06:46:35;;;;;;;10.50;7.80;;;;;;;15.10;75.79;101847.69;5104898;28;20099;-69
2023/09/27 06:49:03;;;;;;;10.90;8.40;;;;;;;15.10;76.55;101863.63;5093324;28;20034;-70
2023/09/27 06:51:30;;;;;;;11.23;8.68;;;;;;;15.16;76.49;101871.78;5101768;28;20080;-70
2023/09/27 06:53:59;;;;;;;10.82;8.63;;;;;;;15.22;76.35;101879.16;5113753;28;20032;-70
2023/09/27 06:56:25;;;;;;;9.50;8.18;;;;;;;15.23;76.55;101878.03;5098914;28;20020;-72
2023/09/27 06:58:51;;;;;;;9.75;8.43;;;;;;;15.24;77.70;101878.88;5095909;28;20024;-68
2023/09/27 07:01:18;;;;;;;10.27;8.50;;;;;;;15.27;77.76;101872.78;5092466;28;20028;-67
2023/09/27 07:03:43;;;;;;;10.60;8.40;;;;;;;15.33;77.89;101868.94;5095474;28;20028;-69
2023/09/27 07:06:09;;;;;;;10.68;8.68;;;;;;;15.36;77.57;101868.41;5106237;28;20038;-69
2023/09/27 07:08:34;;;;;;;11.13;9.00;;;;;;;15.37;77.44;101858.09;5105321;28;20073;-67
2023/09/27 07:11:08;;;;;;;10.63;8.65;;;;;;;15.41;77.68;101862.91;5102263;28;20073;-69
2023/09/27 07:13:34;;;;;;;12.23;9.13;;;;;;;15.40;78.21;101863.13;5091171;28;20059;-68
2023/09/27 07:16:02;;;;;;;11.15;8.88;;;;;;;15.41;78.31;101868.50;5096639;28;20032;-68
2023/09/27 07:18:27;;;;;;;10.27;9.07;;;;;;;15.43;78.14;101869.06;5111221;28;20115;-68
2023/09/27 07:20:52;;;;;;;13.15;9.23;;;;;;;15.47;77.82;101874.97;5094992;28;20107;-68
2023/09/27 07:23:18;;;;;;;10.70;9.07;;;;;;;15.48;77.96;101873.88;5095359;28;20046;-68
2023/09/27 07:25:44;;;;;;;10.85;9.07;;;;;;;15.47;78.00;101881.41;5101282;28;20041;-68
2023/09/27 07:28:10;;;;;;;12.25;8.55;;;;;;;15.51;77.78;101878.09;5108591;28;20103;-68
2023/09/27 07:30:37;;;;;;;9.90;8.40;;;;;;;15.52;77.84;101877.00;5101682;28;20024;-66
2023/09/27 07:33:06;;;;;;;10.77;8.95;;;;;;;15.54;78.28;101877.59;5099510;28;20050;-67
2023/09/27 07:35:35;;;;;;;13.35;9.38;;;;;;;15.55;78.39;101887.66;5107049;28;20134;-68
2023/09/27 07:38:01;;;;;;;11.07;8.60;;;;;;;15.58;78.06;101884.34;5097598;28;20479;-69
2023/09/27 07:40:27;;;;;;;12.95;9.10;;;;;;;15.60;78.25;101880.19;5091001;28;20073;-67
2023/09/27 07:42:53;;;;;;;12.52;9.68;;;;;;;15.67;78.13;101880.00;5105641;28;20031;-66
2023/09/27 07:45:21;;;;;;;12.93;9.27;;;;;;;15.70;78.21;101873.88;5107373;28;20035;-67
2023/09/27 07:47:51;;;;;;;9.95;8.38;;;;;;;15.75;77.87;101871.13;5103521;28;20142;-67
2023/09/27 07:50:21;;;;;;;10.82;9.57;;;;;;;15.80;78.03;101871.22;5094623;28;20052;-67
2023/09/27 07:52:47;;;;;;;12.43;9.02;;;;;;;15.83;77.96;101873.47;5088110;28;20051;-68
2023/09/27 07:55:17;;;;;;;11.75;9.20;;;;;;;15.83;78.01;101883.81;5092703;28;20032;-67
2023/09/27 07:57:43;;;;;;;11.48;8.95;;;;;;;15.89;77.66;101886.41;5106699;28;20101;-68
2023/09/27 08:00:15;;;;;;;11.75;9.48;;;;;;;15.98;78.83;101886.78;5111027;28;20031;-69
2023/09/27 08:02:45;;;;;;;11.90;9.32;;;;;;;16.06;78.51;101888.28;5111199;28;20455;-68
2023/09/27 08:05:16;;;;;;;11.43;9.70;;;;;;;16.16;78.95;101889.22;5111785;28;20032;-68
2023/09/27 08:07:42;;;;;;;13.75;10.27;;;;;;;16.28;78.69;101889.06;5109719;28;20027;-68
2023/09/27 08:10:10;;;;;;;14.85;9.75;;;;;;;16.38;78.70;101897.53;5098454;28;20028;-68
2023/09/27 08:12:38;;;;;;;11.57;10.10;;;;;;;16.50;78.71;101890.91;5090868;28;20035;-68
2023/09/27 08:15:05;;;;;;;9.60;8.60;;;;;;;16.57;78.64;101891.53;5090263;28;20826;-68
2023/09/27 08:17:32;;;;;;;12.82;10.10;;;;;;;16.64;78.29;101883.75;5090750;28;20098;-68
2023/09/27 08:19:58;;;;;;;12.65;10.02;;;;;;;16.73;77.46;101892.50;5099423;28;20035;-68
2023/09/27 08:22:23;;;;;;;14.38;10.30;;;;;;;16.85;77.63;101902.41;5110059;28;20020;-68
2023/09/27 08:24:48;;;;;;;11.30;10.18;;;;;;;16.91;77.61;101912.56;5111172;28;20144;-68
2023/09/27 08:27:16;;;;;;;13.20;10.02;;;;;;;16.98;77.63;101915.16;5111075;28;20113;-68
2023/09/27 08:29:45;;;;;;;15.38;9.57;;;;;;;17.11;77.44;101911.84;5097519;28;20505;-67
2023/09/27 08:32:11;;;;;;;15.00;10.18;;;;;;;17.23;75.98;101905.19;5111158;28;20024;-68
2023/09/27 08:34:36;;;;;;;11.90;9.90;;;;;;;17.35;75.54;101900.19;5111065;28;20038;-68
2023/09/27 08:37:02;;;;;;;14.25;11.45;;;;;;;17.47;75.50;101906.41;5106630;28;20430;-68
2023/09/27 08:39:27;;;;;;;12.60;9.70;;;;;;;17.56;74.45;101907.56;5109640;28;20108;-68
2023/09/27 08:41:55;;;;;;;11.57;9.98;;;;;;;17.72;73.72;101924.47;5110052;28;20148;-68
2023/09/27 08:44:23;;;;;;;13.82;10.00;;;;;;;17.81;73.58;101920.91;5110588;28;20479;-67
2023/09/27 08:46:50;;;;;;;11.57;9.25;;;;;;;17.96;74.15;101913.63;5106803;28;20043;-68
2023/09/27 08:49:17;;;;;;;13.05;9.93;;;;;;;18.03;74.13;101897.38;5107111;28;20091;-68
2023/09/27 08:51:44;;;;;;;11.32;9.15;;;;;;;18.12;72.91;101895.72;5110785;28;20028;-67
2023/09/27 08:54:11;;;;;;;13.63;9.80;;;;;;;18.18;72.52;101896.56;5110813;28;20028;-68
2023/09/27 08:56:36;;;;;;;13.63;10.82;;;;;;;18.26;72.65;101893.19;5109801;28;20024;-68
2023/09/27 08:59:03;;;;;;;11.90;10.68;;;;;;;18.33;73.13;101894.59;5108905;28;20088;-68
2023/09/27 09:01:33;;;;;;;13.70;10.85;;;;;;;18.55;72.89;101890.66;5110414;28;20531;-68
2023/09/27 09:04:02;;;;;;;12.40;10.32;;;;;;;18.72;72.36;101894.06;5106975;28;20039;-68
2023/09/27 09:06:28;;;;;;;12.85;8.65;;;;;;;18.78;71.72;101898.53;5094436;28;20098;-67
2023/09/27 09:08:53;;;;;;;10.88;8.63;;;;;;;18.75;72.15;101899.13;5088815;28;20036;-69
2023/09/27 09:11:18;;;;;;;9.65;6.40;;;;;;;18.71;70.99;101889.56;5091264;28;20028;-62
2023/09/27 09:13:53;;;;;;;12.38;8.85;;;;;;;18.62;72.19;101883.63;5094149;28;20107;-61
2023/09/27 09:16:23;;;;;;;14.50;9.27;;;;;;;18.59;72.66;101875.78;5093708;28;20115;-68
2023/09/27 09:18:51;;;;;;;13.48;9.93;;;;;;;18.62;73.33;101880.81;5108874;28;20054;-69
2023/09/27 09:21:19;;;;;;;13.45;10.60;;;;;;;18.54;72.93;101880.53;5103080;28;20127;-68
2023/09/27 09:23:49;;;;;;;15.50;10.85;;;;;;;18.52;73.41;101875.22;5098008;28;20036;-69
2023/09/27 09:26:45;;;;;;;13.77;11.38;;;;;;;18.52;73.02;101882.81;5089697;28;20032;-67
2023/09/27 09:29:12;;;;;;;12.93;10.48;;;;;;;18.53;73.98;101876.03;5089036;28;20570;-69
2023/09/27 09:31:38;;;;;;;14.48;10.05;;;;;;;18.55;72.60;101877.47;5097141;28;20038;-71
2023/09/27 09:34:08;;;;;;;18.35;10.68;;;;;;;18.53;71.38;101867.63;5103454;28;20017;-70
2023/09/27 09:36:35;;;;;;;19.08;10.38;;;;;;;18.56;71.49;101865.09;5090114;28;20095;-71
2023/09/27 09:39:14;;;;;;;13.23;9.80;;;;;;;18.54;71.49;101869.28;5092091;28;20020;-71
2023/09/27 09:41:53;;;;;;;14.55;9.25;;;;;;;18.52;71.41;101871.56;5098352;28;20475;-71
2023/09/27 09:44:24;;;;;;;19.95;9.35;;;;;;;18.54;70.78;101866.47;5092275;28;20055;-70
2023/09/27 09:46:51;;;;;;;16.70;9.93;;;;;;;18.63;71.27;101853.56;5106483;28;20084;-62
2023/09/27 09:49:17;;;;;;;15.38;10.35;;;;;;;18.70;71.17;101848.50;5092395;28;20150;-68
2023/09/27 09:51:50;;;;;;;14.77;9.90;;;;;;;18.76;71.23;101838.94;5103441;28;20073;-68
2023/09/27 09:54:41;;;;;;;13.82;10.43;;;;;;;18.86;71.11;101838.94;5094679;28;20527;-68
2023/09/27 09:57:07;;;;;;;14.15;10.43;;;;;;;18.98;70.05;101832.13;5094483;28;20179;-69
2023/09/27 09:59:53;;;;;;;13.63;9.88;;;;;;;19.11;70.82;101831.53;5106843;28;20028;-69
2023/09/27 10:02:23;;;;;;;15.55;10.57;;;;;;;19.26;69.59;101825.84;5103492;28;20039;-68
2023/09/27 10:04:55;;;;;;;12.68;9.75;;;;;;;19.34;69.41;101827.22;5098093;28;20506;-70
2023/09/27 10:07:43;;;;;;;13.15;8.65;;;;;;;19.45;68.70;101819.53;5105410;28;20031;-69
2023/09/27 10:10:13;;;;;;;17.02;9.60;;;;;;;19.50;68.12;101816.72;5096011;28;20040;-69
2023/09/27 10:12:41;;;;;;;13.27;9.47;;;;;;;19.47;68.53;101825.75;5095866;28;20308;-70
2023/09/27 10:15:08;;;;;;;16.55;10.25;;;;;;;19.44;68.07;101829.13;5098106;28;20069;-73
2023/09/27 10:17:34;;;;;;;16.45;10.82;;;;;;;19.42;67.83;101831.41;5101343;28;20062;-67
2023/09/27 10:20:13;;;;;;;13.88;10.18;;;;;;;19.48;67.44;101836.69;5102499;28;20046;-67
2023/09/27 10:22:47;;;;;;;12.30;9.25;;;;;;;19.53;67.54;101844.28;5095509;28;20490;-67
2023/09/27 10:25:26;;;;;;;15.77;10.07;;;;;;;19.60;67.66;101837.19;5093143;28;20024;-68
2023/09/27 10:28:15;;;;;;;12.95;9.10;;;;;;;19.66;67.33;101814.69;5091935;28;20123;-69
2023/09/27 10:30:45;;;;;;;9.82;8.82;;;;;;;19.63;66.50;101804.00;5103580;28;20027;-68
2023/09/27 10:33:22;;;;;;;12.35;10.30;;;;;;;19.59;66.90;101798.91;5102411;28;20035;-69
2023/09/27 10:36:11;;;;;;;10.93;9.75;;;;;;;19.58;67.36;101807.66;5094787;28;20376;-69
2023/09/27 10:38:48;;;;;;;11.48;8.45;;;;;;;19.60;67.19;101803.41;5098883;28;20023;-71
2023/09/27 10:41:42;;;;;;;10.18;7.97;;;;;;;19.66;67.61;101807.06;5092141;28;20036;-70
2023/09/27 10:44:08;;;;;;;10.93;8.40;;;;;;;19.70;66.90;101802.53;5085885;28;20101;-68
2023/09/27 10:46:49;;;;;;;12.48;9.02;;;;;;;19.73;66.30;101793.50;5093259;28;20031;-68
2023/09/27 10:49:25;;;;;;;12.15;8.30;;;;;;;19.77;66.55;101788.97;5091058;28;20036;-66
2023/09/27 10:51:52;;;;;;;8.98;8.07;;;;;;;19.77;66.27;101779.69;5095679;28;20433;-67
2023/09/27 10:54:24;;;;;;;11.00;7.68;;;;;;;19.82;66.63;101769.22;5094233;28;20069;-68
2023/09/27 10:56:53;;;;;;;;;;;;;;;19.82;67.34;101774.84;5092515;28;20032;-67
2023/09/27 10:59:28;;;;;;;12.82;7.47;;;;;;;19.85;65.74;101764.97;5098663;28;19915;-72
2023/09/27 11:01:55;;;;;;;9.85;7.13;;;;;;;19.90;65.35;101772.53;5095773;28;20122;-67
2023/09/27 11:04:25;;;;;;;10.65;7.53;;;;;;;19.93;64.80;101764.34;5090679;28;20039;-67
2023/09/27 11:06:51;;;;;;;10.13;7.20;;;;;;;19.92;64.38;101761.81;5107272;28;20039;-68
2023/09/27 11:09:20;;;;;;;10.35;7.50;;;;;;;19.95;64.26;101764.03;5101820;28;20028;-67
2023/09/27 11:11:54;;;;;;;7.82;6.45;;;;;;;19.90;64.59;101764.94;5093682;28;20429;-67
2023/09/27 11:14:31;;;;;;;7.63;6.82;;;;;;;19.88;64.43;101746.63;5091829;28;20036;-68
2023/09/27 11:17:17;;;;;;;9.18;7.13;;;;;;;19.83;64.24;101756.81;5101638;28;20031;-68
2023/09/27 11:19:43;;;;;;;9.25;7.07;;;;;;;19.83;64.52;101753.16;5092767;28;20036;-67
2023/09/27 11:22:08;;;;;;;10.13;7.80;;;;;;;19.84;64.82;101738.75;5093408;28;20035;-69
2023/09/27 11:24:38;;;;;;;8.80;6.55;;;;;;;19.88;66.20;101732.53;5097514;28;20121;-66